LPMR

Monte Real Airport

Portugal
TAF LPMR 252302Z 2600/2624 35012KT CAVOK PROB30 2600/2602 35015G25KT SCT005 BKN012 PROB30 2602/2609 VRB02KT SCT005 BKN012 TEMPO 2612/2619 34015G25KT
Issued Valid From Valid To
Apr-25 @ 23:02 UTC
(5 hours ago)
Apr-26 @ 00:00 UTC
(4 hours ago)
Apr-27 @ 00:00 UTC
(in 20 hours)
Apr-26 @ 00:00 to Apr-27 @ 00:00
TAF LPMR 252302Z 2600/2624 35012KT CAVOK
Wind Visibility Clouds Conditions
350° at 12 knots 10,000+ meters
  • No significant clouds
Expired Click to View Apr-26 @ 00:00 to Apr-26 @ 02:00
PROB30 2600/2602 35015G25KT SCT005 BKN012
Wind Clouds
350° at 15 knots
 Gusting to 25 knots
  • Scattered at 500' AGL
  • Broken at 1,200' AGL
Probable  (Probability 30%) Apr-26 @ 02:00 to Apr-26 @ 09:00
PROB30 2602/2609 VRB02KT SCT005 BKN012
Wind Clouds
Variable at 2 knots
  • Scattered at 500' AGL
  • Broken at 1,200' AGL
Temporary Apr-26 @ 12:00 to Apr-26 @ 19:00
TEMPO 2612/2619 34015G25KT
Wind
340° at 15 knots
 Gusting to 25 knots
TAF LPMR 252302Z 2600/2624 35012KT CAVOK PROB30 2600/2602 35015G25KT SCT005 BKN012 PROB30 2602/2609 VRB02KT SCT005 BKN012 TEMPO 2612/2619 34015G25KT
Issued Apr-25 @ 23:02 UTC
(5 hours ago)
Valid From Apr-26 @ 00:00 UTC
(4 hours ago)
Valid To Apr-27 @ 00:00 UTC
(in 20 hours)
Apr-26 @ 00:00 - Apr-27 @ 00:00
Wind Visibility
350° at 12 knots 10,000+ meters
Clouds
  • No significant clouds
Conditions
Apr-26 @ 00:00 - Apr-26 @ 02:00
Wind
350° at 15 knots
 Gusting to 25 knots
Clouds
  • Scattered at 500' AGL
  • Broken at 1,200' AGL
Probability 30% Probable Apr-26 @ 02:00 - Apr-26 @ 09:00
Wind
Variable at 2 knots
Clouds
  • Scattered at 500' AGL
  • Broken at 1,200' AGL
Temporary Apr-26 @ 12:00 - Apr-26 @ 19:00
Wind
340° at 15 knots
 Gusting to 25 knots